sensor_id;sensor_type;location;lat;lon;timestamp;temperature;humidity
947;DHT22;460;48.734;9.152;2024-01-07T00:02:07;4.60;99.90
947;DHT22;460;48.734;9.152;2024-01-07T00:04:34;4.60;99.90
947;DHT22;460;48.734;9.152;2024-01-07T00:07:01;4.60;99.90
947;DHT22;460;48.734;9.152;2024-01-07T00:09:28;4.60;99.90
947;DHT22;460;48.734;9.152;2024-01-07T00:11:54;4.60;99.90
947;DHT22;460;48.734;9.152;2024-01-07T00:14:21;4.60;99.90
947;DHT22;460;48.734;9.152;2024-01-07T00:16:48;4.60;99.90
947;DHT22;460;48.734;9.152;2024-01-07T00:19:17;4.60;99.90
947;DHT22;460;48.734;9.152;2024-01-07T00:21:44;4.50;99.90
947;DHT22;460;48.734;9.152;2024-01-07T00:24:11;4.50;99.90
947;DHT22;460;48.734;9.152;2024-01-07T00:26:37;4.50;99.90
947;DHT22;460;48.734;9.152;2024-01-07T00:29:04;4.50;99.90
947;DHT22;460;48.734;9.152;2024-01-07T00:31:31;4.40;99.90
947;DHT22;460;48.734;9.152;2024-01-07T00:33:58;4.40;99.90
947;DHT22;460;48.734;9.152;2024-01-07T00:36:26;4.40;99.90
947;DHT22;460;48.734;9.152;2024-01-07T00:38:53;4.50;99.90
947;DHT22;460;48.734;9.152;2024-01-07T00:41:19;4.40;99.90
947;DHT22;460;48.734;9.152;2024-01-07T00:43:46;4.50;99.90
947;DHT22;460;48.734;9.152;2024-01-07T00:46:13;4.50;99.90
947;DHT22;460;48.734;9.152;2024-01-07T00:48:40;4.60;99.90
947;DHT22;460;48.734;9.152;2024-01-07T00:51:07;4.60;99.90
947;DHT22;460;48.734;9.152;2024-01-07T00:53:35;4.50;99.90
947;DHT22;460;48.734;9.152;2024-01-07T00:56:02;4.50;99.90
947;DHT22;460;48.734;9.152;2024-01-07T00:58:29;4.50;99.90
947;DHT22;460;48.734;9.152;2024-01-07T01:00:56;4.50;99.90
947;DHT22;460;48.734;9.152;2024-01-07T01:03:23;4.40;99.90
947;DHT22;460;48.734;9.152;2024-01-07T01:05:50;4.40;99.90
947;DHT22;460;48.734;9.152;2024-01-07T01:08:16;4.40;99.90
947;DHT22;460;48.734;9.152;2024-01-07T01:10:44;4.40;99.90
947;DHT22;460;48.734;9.152;2024-01-07T01:13:11;4.40;99.90
947;DHT22;460;48.734;9.152;2024-01-07T01:15:38;4.30;99.90
947;DHT22;460;48.734;9.152;2024-01-07T01:18:05;4.30;99.90
947;DHT22;460;48.734;9.152;2024-01-07T01:20:32;4.30;99.90
947;DHT22;460;48.734;9.152;2024-01-07T01:22:59;4.30;99.90
947;DHT22;460;48.734;9.152;2024-01-07T01:25:25;4.30;99.90
947;DHT22;460;48.734;9.152;2024-01-07T01:27:54;4.50;99.90
947;DHT22;460;48.734;9.152;2024-01-07T01:30:20;4.40;99.90
947;DHT22;460;48.734;9.152;2024-01-07T01:32:47;4.40;99.90
947;DHT22;460;48.734;9.152;2024-01-07T01:35:14;4.40;99.90
947;DHT22;460;48.734;9.152;2024-01-07T01:37:41;4.50;99.90
947;DHT22;460;48.734;9.152;2024-01-07T01:40:08;4.50;99.90
947;DHT22;460;48.734;9.152;2024-01-07T01:42:35;4.50;99.90
947;DHT22;460;48.734;9.152;2024-01-07T01:45:04;4.50;99.90
947;DHT22;460;48.734;9.152;2024-01-07T01:47:31;4.40;99.90
947;DHT22;460;48.734;9.152;2024-01-07T01:49:58;4.40;99.90
947;DHT22;460;48.734;9.152;2024-01-07T01:52:26;4.50;99.90
947;DHT22;460;48.734;9.152;2024-01-07T01:54:53;4.30;99.90
947;DHT22;460;48.734;9.152;2024-01-07T01:57:22;4.30;99.90
947;DHT22;460;48.734;9.152;2024-01-07T01:59:51;4.30;99.90
947;DHT22;460;48.734;9.152;2024-01-07T02:02:20;4.50;99.90
947;DHT22;460;48.734;9.152;2024-01-07T02:04:47;4.50;99.90
947;DHT22;460;48.734;9.152;2024-01-07T02:07:14;4.40;99.90
947;DHT22;460;48.734;9.152;2024-01-07T02:09:42;4.40;99.90
947;DHT22;460;48.734;9.152;2024-01-07T02:12:10;4.40;99.90
947;DHT22;460;48.734;9.152;2024-01-07T02:14:38;4.30;99.90
947;DHT22;460;48.734;9.152;2024-01-07T02:17:06;4.30;99.90
947;DHT22;460;48.734;9.152;2024-01-07T02:19:34;4.20;99.90
947;DHT22;460;48.734;9.152;2024-01-07T02:22:01;4.20;99.90
947;DHT22;460;48.734;9.152;2024-01-07T02:24:29;4.20;99.90
947;DHT22;460;48.734;9.152;2024-01-07T02:26:58;4.40;99.90
947;DHT22;460;48.734;9.152;2024-01-07T02:29:27;4.30;99.90
947;DHT22;460;48.734;9.152;2024-01-07T02:31:54;4.40;99.90
947;DHT22;460;48.734;9.152;2024-01-07T02:34:21;4.30;99.90
947;DHT22;460;48.734;9.152;2024-01-07T02:36:48;4.30;99.90
947;DHT22;460;48.734;9.152;2024-01-07T02:39:15;4.40;99.90
947;DHT22;460;48.734;9.152;2024-01-07T02:41:45;4.40;99.90
947;DHT22;460;48.734;9.152;2024-01-07T02:44:12;4.20;99.90
947;DHT22;460;48.734;9.152;2024-01-07T02:46:40;4.30;99.90
947;DHT22;460;48.734;9.152;2024-01-07T02:49:07;4.40;99.90
947;DHT22;460;48.734;9.152;2024-01-07T02:51:35;4.50;99.90
947;DHT22;460;48.734;9.152;2024-01-07T02:54:03;4.50;99.90
947;DHT22;460;48.734;9.152;2024-01-07T02:56:31;4.50;99.90
947;DHT22;460;48.734;9.152;2024-01-07T02:59:00;4.50;99.90
947;DHT22;460;48.734;9.152;2024-01-07T03:01:28;4.50;99.90
947;DHT22;460;48.734;9.152;2024-01-07T03:03:55;4.50;99.90
947;DHT22;460;48.734;9.152;2024-01-07T03:06:26;4.50;99.90
947;DHT22;460;48.734;9.152;2024-01-07T03:08:55;4.40;99.90
947;DHT22;460;48.734;9.152;2024-01-07T03:11:22;4.40;99.90
947;DHT22;460;48.734;9.152;2024-01-07T03:13:50;4.50;99.90
947;DHT22;460;48.734;9.152;2024-01-07T03:16:24;4.50;99.90
947;DHT22;460;48.734;9.152;2024-01-07T03:18:51;4.60;99.90
947;DHT22;460;48.734;9.152;2024-01-07T03:21:18;4.50;99.90
947;DHT22;460;48.734;9.152;2024-01-07T03:23:46;4.50;99.90
947;DHT22;460;48.734;9.152;2024-01-07T03:26:13;4.50;99.90
947;DHT22;460;48.734;9.152;2024-01-07T03:28:40;4.50;99.90
947;DHT22;460;48.734;9.152;2024-01-07T03:31:09;4.50;99.90
947;DHT22;460;48.734;9.152;2024-01-07T03:33:38;4.50;99.90
947;DHT22;460;48.734;9.152;2024-01-07T03:36:08;4.60;99.90
947;DHT22;460;48.734;9.152;2024-01-07T03:38:37;4.60;99.90
947;DHT22;460;48.734;9.152;2024-01-07T03:41:05;4.50;99.90
947;DHT22;460;48.734;9.152;2024-01-07T03:43:33;4.30;99.90
947;DHT22;460;48.734;9.152;2024-01-07T03:46:00;4.40;99.90
947;DHT22;460;48.734;9.152;2024-01-07T03:48:27;4.40;99.90
947;DHT22;460;48.734;9.152;2024-01-07T03:50:55;4.50;99.90
947;DHT22;460;48.734;9.152;2024-01-07T03:53:22;4.50;99.90
947;DHT22;460;48.734;9.152;2024-01-07T03:55:49;4.50;99.90
947;DHT22;460;48.734;9.152;2024-01-07T03:58:16;4.50;99.90
947;DHT22;460;48.734;9.152;2024-01-07T04:00:43;4.40;99.90
947;DHT22;460;48.734;9.152;2024-01-07T04:03:09;4.50;99.90
947;DHT22;460;48.734;9.152;2024-01-07T04:05:36;4.50;99.90
947;DHT22;460;48.734;9.152;2024-01-07T04:08:08;4.50;99.90
947;DHT22;460;48.734;9.152;2024-01-07T04:10:36;4.50;99.90
947;DHT22;460;48.734;9.152;2024-01-07T04:13:03;4.50;99.90
947;DHT22;460;48.734;9.152;2024-01-07T04:15:30;4.60;99.90
947;DHT22;460;48.734;9.152;2024-01-07T04:17:57;4.60;99.90
947;DHT22;460;48.734;9.152;2024-01-07T04:20:23;4.50;99.90
947;DHT22;460;48.734;9.152;2024-01-07T04:22:50;4.50;99.90
947;DHT22;460;48.734;9.152;2024-01-07T04:25:19;4.50;99.90
947;DHT22;460;48.734;9.152;2024-01-07T04:27:45;4.40;99.90
947;DHT22;460;48.734;9.152;2024-01-07T04:30:12;4.40;99.90
947;DHT22;460;48.734;9.152;2024-01-07T04:32:39;4.30;99.90
947;DHT22;460;48.734;9.152;2024-01-07T04:35:06;4.30;99.90
947;DHT22;460;48.734;9.152;2024-01-07T04:37:34;4.30;99.90
947;DHT22;460;48.734;9.152;2024-01-07T04:40:01;4.20;99.90
947;DHT22;460;48.734;9.152;2024-01-07T04:42:30;4.20;99.90
947;DHT22;460;48.734;9.152;2024-01-07T04:44:57;4.20;99.90
947;DHT22;460;48.734;9.152;2024-01-07T04:47:25;4.20;99.90
947;DHT22;460;48.734;9.152;2024-01-07T04:49:53;4.10;99.90
947;DHT22;460;48.734;9.152;2024-01-07T04:52:21;4.10;99.90
947;DHT22;460;48.734;9.152;2024-01-07T04:54:47;4.10;99.90
947;DHT22;460;48.734;9.152;2024-01-07T04:57:14;4.10;99.90
947;DHT22;460;48.734;9.152;2024-01-07T04:59:42;4.20;99.90
947;DHT22;460;48.734;9.152;2024-01-07T05:02:10;4.20;99.90
947;DHT22;460;48.734;9.152;2024-01-07T05:04:37;4.30;99.90
947;DHT22;460;48.734;9.152;2024-01-07T05:07:04;4.30;99.90
947;DHT22;460;48.734;9.152;2024-01-07T05:09:32;4.10;99.90
947;DHT22;460;48.734;9.152;2024-01-07T05:11:59;4.20;99.90
947;DHT22;460;48.734;9.152;2024-01-07T05:14:25;4.20;99.90
947;DHT22;460;48.734;9.152;2024-01-07T05:16:54;4.20;99.90
947;DHT22;460;48.734;9.152;2024-01-07T05:19:21;4.20;99.90
947;DHT22;460;48.734;9.152;2024-01-07T05:21:48;4.10;99.90
947;DHT22;460;48.734;9.152;2024-01-07T05:24:15;4.20;99.90
947;DHT22;460;48.734;9.152;2024-01-07T05:26:42;4.20;99.90
947;DHT22;460;48.734;9.152;2024-01-07T05:29:09;4.20;99.90
947;DHT22;460;48.734;9.152;2024-01-07T05:31:37;4.10;99.90
947;DHT22;460;48.734;9.152;2024-01-07T05:34:05;4.00;99.90
947;DHT22;460;48.734;9.152;2024-01-07T05:36:31;4.00;99.90
947;DHT22;460;48.734;9.152;2024-01-07T05:38:58;4.00;99.90
947;DHT22;460;48.734;9.152;2024-01-07T05:41:25;4.00;99.90
947;DHT22;460;48.734;9.152;2024-01-07T05:43:52;3.90;99.90
947;DHT22;460;48.734;9.152;2024-01-07T05:46:19;4.10;99.90
947;DHT22;460;48.734;9.152;2024-01-07T05:48:47;4.10;99.90
947;DHT22;460;48.734;9.152;2024-01-07T05:51:16;4.10;99.90
947;DHT22;460;48.734;9.152;2024-01-07T05:53:45;4.10;99.90
947;DHT22;460;48.734;9.152;2024-01-07T05:56:12;4.00;99.90
947;DHT22;460;48.734;9.152;2024-01-07T05:58:38;4.00;99.90
947;DHT22;460;48.734;9.152;2024-01-07T06:01:06;4.10;99.90
947;DHT22;460;48.734;9.152;2024-01-07T06:03:34;4.00;99.90
947;DHT22;460;48.734;9.152;2024-01-07T06:06:01;3.90;99.90
947;DHT22;460;48.734;9.152;2024-01-07T06:08:29;4.00;99.90
947;DHT22;460;48.734;9.152;2024-01-07T06:10:56;4.10;99.90
947;DHT22;460;48.734;9.152;2024-01-07T06:13:23;4.10;99.90
947;DHT22;460;48.734;9.152;2024-01-07T06:15:50;4.00;99.90
947;DHT22;460;48.734;9.152;2024-01-07T06:18:17;3.90;99.90
947;DHT22;460;48.734;9.152;2024-01-07T06:20:43;4.00;99.90
947;DHT22;460;48.734;9.152;2024-01-07T06:23:10;4.00;99.90
947;DHT22;460;48.734;9.152;2024-01-07T06:25:38;4.00;99.90
947;DHT22;460;48.734;9.152;2024-01-07T06:28:06;4.10;99.90
947;DHT22;460;48.734;9.152;2024-01-07T06:30:33;4.10;99.90
947;DHT22;460;48.734;9.152;2024-01-07T06:33:00;4.00;99.90
947;DHT22;460;48.734;9.152;2024-01-07T06:35:27;4.10;99.90
947;DHT22;460;48.734;9.152;2024-01-07T06:37:54;4.10;99.90
947;DHT22;460;48.734;9.152;2024-01-07T06:40:20;4.10;99.90
947;DHT22;460;48.734;9.152;2024-01-07T06:42:49;4.10;99.90
947;DHT22;460;48.734;9.152;2024-01-07T06:45:17;4.10;99.90
947;DHT22;460;48.734;9.152;2024-01-07T06:47:44;4.00;99.90
947;DHT22;460;48.734;9.152;2024-01-07T06:50:11;3.90;99.90
947;DHT22;460;48.734;9.152;2024-01-07T06:52:38;4.00;99.90
947;DHT22;460;48.734;9.152;2024-01-07T06:55:06;4.00;99.90
947;DHT22;460;48.734;9.152;2024-01-07T06:57:33;4.00;99.90
947;DHT22;460;48.734;9.152;2024-01-07T07:00:01;3.90;99.90
947;DHT22;460;48.734;9.152;2024-01-07T07:02:29;3.80;99.90
947;DHT22;460;48.734;9.152;2024-01-07T07:04:56;3.80;99.90
947;DHT22;460;48.734;9.152;2024-01-07T07:07:23;3.90;99.90
947;DHT22;460;48.734;9.152;2024-01-07T07:09:50;3.90;99.90
947;DHT22;460;48.734;9.152;2024-01-07T07:12:17;3.90;99.90
947;DHT22;460;48.734;9.152;2024-01-07T07:14:44;4.00;99.90
947;DHT22;460;48.734;9.152;2024-01-07T07:17:13;4.00;99.90
947;DHT22;460;48.734;9.152;2024-01-07T07:19:40;3.90;99.90
947;DHT22;460;48.734;9.152;2024-01-07T07:22:06;3.90;99.90
947;DHT22;460;48.734;9.152;2024-01-07T07:24:33;3.90;99.90
947;DHT22;460;48.734;9.152;2024-01-07T07:27:00;4.00;99.90
947;DHT22;460;48.734;9.152;2024-01-07T07:29:27;4.00;99.90
947;DHT22;460;48.734;9.152;2024-01-07T07:31:53;3.90;99.90
947;DHT22;460;48.734;9.152;2024-01-07T07:34:22;3.90;99.90
947;DHT22;460;48.734;9.152;2024-01-07T07:36:48;3.80;99.90
947;DHT22;460;48.734;9.152;2024-01-07T07:39:15;3.80;99.90
947;DHT22;460;48.734;9.152;2024-01-07T07:41:42;3.70;99.90
947;DHT22;460;48.734;9.152;2024-01-07T07:44:09;3.70;99.90
947;DHT22;460;48.734;9.152;2024-01-07T07:46:35;3.70;99.90
947;DHT22;460;48.734;9.152;2024-01-07T07:49:02;3.60;99.90
947;DHT22;460;48.734;9.152;2024-01-07T07:51:30;3.60;99.90
947;DHT22;460;48.734;9.152;2024-01-07T07:53:57;3.60;99.90
947;DHT22;460;48.734;9.152;2024-01-07T07:56:24;3.70;99.90
947;DHT22;460;48.734;9.152;2024-01-07T07:58:51;3.80;99.90
947;DHT22;460;48.734;9.152;2024-01-07T08:01:18;3.70;99.90
947;DHT22;460;48.734;9.152;2024-01-07T08:03:45;3.70;99.90
947;DHT22;460;48.734;9.152;2024-01-07T08:06:14;3.80;99.90
947;DHT22;460;48.734;9.152;2024-01-07T08:08:42;3.70;99.90
947;DHT22;460;48.734;9.152;2024-01-07T08:11:08;3.70;99.90
947;DHT22;460;48.734;9.152;2024-01-07T08:13:36;3.60;99.90
947;DHT22;460;48.734;9.152;2024-01-07T08:16:04;3.70;99.90
947;DHT22;460;48.734;9.152;2024-01-07T08:18:31;3.60;99.90
947;DHT22;460;48.734;9.152;2024-01-07T08:20:58;3.70;99.90
947;DHT22;460;48.734;9.152;2024-01-07T08:23:25;3.70;99.90
947;DHT22;460;48.734;9.152;2024-01-07T08:25:53;3.70;99.90
947;DHT22;460;48.734;9.152;2024-01-07T08:28:20;3.60;99.90
947;DHT22;460;48.734;9.152;2024-01-07T08:30:47;3.50;99.90
947;DHT22;460;48.734;9.152;2024-01-07T08:33:14;3.40;99.90
947;DHT22;460;48.734;9.152;2024-01-07T08:35:41;3.40;99.90
947;DHT22;460;48.734;9.152;2024-01-07T08:38:11;3.40;99.90
947;DHT22;460;48.734;9.152;2024-01-07T08:40:41;3.50;99.90
947;DHT22;460;48.734;9.152;2024-01-07T08:43:09;3.60;99.90
947;DHT22;460;48.734;9.152;2024-01-07T08:45:36;3.50;99.90
947;DHT22;460;48.734;9.152;2024-01-07T08:48:03;3.50;99.90
947;DHT22;460;48.734;9.152;2024-01-07T08:50:30;3.60;99.90
947;DHT22;460;48.734;9.152;2024-01-07T08:52:57;3.50;99.90
947;DHT22;460;48.734;9.152;2024-01-07T08:55:23;3.50;99.90
947;DHT22;460;48.734;9.152;2024-01-07T08:57:50;3.60;99.90
947;DHT22;460;48.734;9.152;2024-01-07T09:00:19;3.60;99.90
947;DHT22;460;48.734;9.152;2024-01-07T09:02:51;3.60;99.90
947;DHT22;460;48.734;9.152;2024-01-07T09:05:18;3.60;99.90
947;DHT22;460;48.734;9.152;2024-01-07T09:07:44;3.50;99.90
947;DHT22;460;48.734;9.152;2024-01-07T09:10:14;3.50;99.90
947;DHT22;460;48.734;9.152;2024-01-07T09:12:44;3.50;99.90
947;DHT22;460;48.734;9.152;2024-01-07T09:15:11;3.60;99.90
947;DHT22;460;48.734;9.152;2024-01-07T09:17:39;3.50;99.90
947;DHT22;460;48.734;9.152;2024-01-07T09:20:08;3.40;99.90
947;DHT22;460;48.734;9.152;2024-01-07T09:22:35;3.40;99.90
947;DHT22;460;48.734;9.152;2024-01-07T09:25:03;3.60;99.90
947;DHT22;460;48.734;9.152;2024-01-07T09:27:31;3.70;99.90
947;DHT22;460;48.734;9.152;2024-01-07T09:29:58;3.60;99.90
947;DHT22;460;48.734;9.152;2024-01-07T09:32:25;3.60;99.90
947;DHT22;460;48.734;9.152;2024-01-07T09:34:54;3.40;99.90
947;DHT22;460;48.734;9.152;2024-01-07T09:37:21;3.40;99.90
947;DHT22;460;48.734;9.152;2024-01-07T09:39:48;3.30;99.90
947;DHT22;460;48.734;9.152;2024-01-07T09:42:16;3.30;99.90
947;DHT22;460;48.734;9.152;2024-01-07T09:44:44;3.30;99.90
947;DHT22;460;48.734;9.152;2024-01-07T09:47:12;3.30;99.90
947;DHT22;460;48.734;9.152;2024-01-07T09:49:39;3.40;99.90
947;DHT22;460;48.734;9.152;2024-01-07T09:52:08;3.50;99.90
947;DHT22;460;48.734;9.152;2024-01-07T09:54:36;3.50;99.90
947;DHT22;460;48.734;9.152;2024-01-07T09:57:04;3.50;99.90
947;DHT22;460;48.734;9.152;2024-01-07T09:59:33;3.60;99.90
947;DHT22;460;48.734;9.152;2024-01-07T10:02:00;3.50;99.90
947;DHT22;460;48.734;9.152;2024-01-07T10:04:27;3.50;99.90
947;DHT22;460;48.734;9.152;2024-01-07T10:06:54;3.50;99.90
947;DHT22;460;48.734;9.152;2024-01-07T10:09:24;3.40;99.90
947;DHT22;460;48.734;9.152;2024-01-07T10:11:52;3.50;99.90
947;DHT22;460;48.734;9.152;2024-01-07T10:14:19;3.50;99.90
947;DHT22;460;48.734;9.152;2024-01-07T10:16:47;3.60;99.90
947;DHT22;460;48.734;9.152;2024-01-07T10:19:19;3.50;99.90
947;DHT22;460;48.734;9.152;2024-01-07T10:21:46;3.50;99.90
947;DHT22;460;48.734;9.152;2024-01-07T10:24:13;3.40;99.90
947;DHT22;460;48.734;9.152;2024-01-07T10:26:41;3.30;99.90
947;DHT22;460;48.734;9.152;2024-01-07T10:29:08;3.20;99.90
947;DHT22;460;48.734;9.152;2024-01-07T10:31:37;3.20;99.90
947;DHT22;460;48.734;9.152;2024-01-07T10:34:07;3.30;99.90
947;DHT22;460;48.734;9.152;2024-01-07T10:36:34;3.30;99.90
947;DHT22;460;48.734;9.152;2024-01-07T10:39:00;3.40;99.90
947;DHT22;460;48.734;9.152;2024-01-07T10:41:28;3.30;99.90
947;DHT22;460;48.734;9.152;2024-01-07T10:43:57;3.30;99.90
947;DHT22;460;48.734;9.152;2024-01-07T10:46:25;3.40;99.90
947;DHT22;460;48.734;9.152;2024-01-07T10:48:59;3.20;99.90
947;DHT22;460;48.734;9.152;2024-01-07T10:51:28;3.20;99.90
947;DHT22;460;48.734;9.152;2024-01-07T10:53:56;3.20;99.90
947;DHT22;460;48.734;9.152;2024-01-07T10:56:23;3.20;99.90
947;DHT22;460;48.734;9.152;2024-01-07T10:58:52;3.10;99.90
947;DHT22;460;48.734;9.152;2024-01-07T11:01:21;3.10;99.90
947;DHT22;460;48.734;9.152;2024-01-07T11:03:54;3.00;99.90
947;DHT22;460;48.734;9.152;2024-01-07T11:06:27;3.10;99.90
947;DHT22;460;48.734;9.152;2024-01-07T11:09:01;3.10;99.90
947;DHT22;460;48.734;9.152;2024-01-07T11:11:36;3.20;99.90
947;DHT22;460;48.734;9.152;2024-01-07T11:14:35;3.20;99.90
947;DHT22;460;48.734;9.152;2024-01-07T11:17:04;3.10;99.90
947;DHT22;460;48.734;9.152;2024-01-07T11:19:30;3.10;99.90
947;DHT22;460;48.734;9.152;2024-01-07T11:22:21;3.10;99.90
947;DHT22;460;48.734;9.152;2024-01-07T11:24:50;3.00;99.90
947;DHT22;460;48.734;9.152;2024-01-07T11:27:17;3.00;99.90
947;DHT22;460;48.734;9.152;2024-01-07T11:29:44;3.10;99.90
947;DHT22;460;48.734;9.152;2024-01-07T11:32:18;3.10;99.90
947;DHT22;460;48.734;9.152;2024-01-07T11:34:45;2.90;99.90
947;DHT22;460;48.734;9.152;2024-01-07T11:37:15;2.90;99.90
947;DHT22;460;48.734;9.152;2024-01-07T11:39:42;2.90;99.90
947;DHT22;460;48.734;9.152;2024-01-07T11:42:10;2.90;99.90
947;DHT22;460;48.734;9.152;2024-01-07T11:44:37;3.00;99.90
947;DHT22;460;48.734;9.152;2024-01-07T11:47:04;3.00;99.90
947;DHT22;460;48.734;9.152;2024-01-07T11:49:33;3.10;99.90
947;DHT22;460;48.734;9.152;2024-01-07T11:52:00;2.80;99.90
947;DHT22;460;48.734;9.152;2024-01-07T11:54:28;2.90;99.90
947;DHT22;460;48.734;9.152;2024-01-07T11:56:55;2.90;99.90
947;DHT22;460;48.734;9.152;2024-01-07T11:59:22;2.90;99.90
947;DHT22;460;48.734;9.152;2024-01-07T12:01:49;2.90;99.90
947;DHT22;460;48.734;9.152;2024-01-07T12:04:16;2.90;99.90
947;DHT22;460;48.734;9.152;2024-01-07T12:06:44;2.90;99.90
947;DHT22;460;48.734;9.152;2024-01-07T12:09:12;2.90;99.90
947;DHT22;460;48.734;9.152;2024-01-07T12:11:39;2.90;99.90
947;DHT22;460;48.734;9.152;2024-01-07T12:14:07;2.90;99.90
947;DHT22;460;48.734;9.152;2024-01-07T12:16:34;2.80;99.90
947;DHT22;460;48.734;9.152;2024-01-07T12:19:01;2.80;99.90
947;DHT22;460;48.734;9.152;2024-01-07T12:21:28;2.80;99.90
947;DHT22;460;48.734;9.152;2024-01-07T12:23:57;2.80;99.90
947;DHT22;460;48.734;9.152;2024-01-07T12:26:26;2.80;99.90
947;DHT22;460;48.734;9.152;2024-01-07T12:28:53;2.80;99.90
947;DHT22;460;48.734;9.152;2024-01-07T12:31:21;2.70;99.90
947;DHT22;460;48.734;9.152;2024-01-07T12:33:48;2.70;99.90
947;DHT22;460;48.734;9.152;2024-01-07T12:36:14;2.80;99.90
947;DHT22;460;48.734;9.152;2024-01-07T12:38:41;2.70;99.90
947;DHT22;460;48.734;9.152;2024-01-07T12:41:10;2.70;99.90
947;DHT22;460;48.734;9.152;2024-01-07T12:43:37;2.70;99.90
947;DHT22;460;48.734;9.152;2024-01-07T12:46:04;2.70;99.90
947;DHT22;460;48.734;9.152;2024-01-07T12:48:31;2.70;99.90
947;DHT22;460;48.734;9.152;2024-01-07T12:50:58;2.70;99.90
947;DHT22;460;48.734;9.152;2024-01-07T12:53:25;2.70;99.90
947;DHT22;460;48.734;9.152;2024-01-07T12:55:52;2.70;99.90
947;DHT22;460;48.734;9.152;2024-01-07T12:58:21;2.70;99.90
947;DHT22;460;48.734;9.152;2024-01-07T13:00:48;2.70;99.90
947;DHT22;460;48.734;9.152;2024-01-07T13:03:15;2.80;99.90
947;DHT22;460;48.734;9.152;2024-01-07T13:05:44;2.80;99.90
947;DHT22;460;48.734;9.152;2024-01-07T13:08:11;2.80;99.90
947;DHT22;460;48.734;9.152;2024-01-07T13:10:39;2.80;99.90
947;DHT22;460;48.734;9.152;2024-01-07T13:13:06;2.70;99.90
947;DHT22;460;48.734;9.152;2024-01-07T13:15:34;2.80;99.90
947;DHT22;460;48.734;9.152;2024-01-07T13:18:00;2.70;99.90
947;DHT22;460;48.734;9.152;2024-01-07T13:20:29;2.70;99.90
947;DHT22;460;48.734;9.152;2024-01-07T13:22:56;2.50;99.90
947;DHT22;460;48.734;9.152;2024-01-07T13:25:22;2.50;99.90
947;DHT22;460;48.734;9.152;2024-01-07T13:27:49;2.60;99.90
947;DHT22;460;48.734;9.152;2024-01-07T13:30:17;2.50;99.90
947;DHT22;460;48.734;9.152;2024-01-07T13:32:45;2.40;99.90
947;DHT22;460;48.734;9.152;2024-01-07T13:35:12;2.30;99.90
947;DHT22;460;48.734;9.152;2024-01-07T13:37:40;2.30;99.90
947;DHT22;460;48.734;9.152;2024-01-07T13:40:09;2.40;99.90
947;DHT22;460;48.734;9.152;2024-01-07T13:42:36;2.40;99.90
947;DHT22;460;48.734;9.152;2024-01-07T13:45:04;2.60;99.90
947;DHT22;460;48.734;9.152;2024-01-07T13:47:31;2.40;99.90
947;DHT22;460;48.734;9.152;2024-01-07T13:50:02;2.20;99.90
947;DHT22;460;48.734;9.152;2024-01-07T13:52:30;2.10;99.90
947;DHT22;460;48.734;9.152;2024-01-07T13:54:57;2.00;99.90
947;DHT22;460;48.734;9.152;2024-01-07T13:57:23;2.20;99.90
947;DHT22;460;48.734;9.152;2024-01-07T13:59:50;2.30;99.90
947;DHT22;460;48.734;9.152;2024-01-07T14:02:18;2.30;99.90
947;DHT22;460;48.734;9.152;2024-01-07T14:04:45;2.30;99.90
947;DHT22;460;48.734;9.152;2024-01-07T14:07:13;2.20;99.90
947;DHT22;460;48.734;9.152;2024-01-07T14:09:40;2.10;99.90
947;DHT22;460;48.734;9.152;2024-01-07T14:12:08;2.20;99.90
947;DHT22;460;48.734;9.152;2024-01-07T14:14:34;2.00;99.90
947;DHT22;460;48.734;9.152;2024-01-07T14:17:01;2.00;99.90
947;DHT22;460;48.734;9.152;2024-01-07T14:19:28;2.20;99.90
947;DHT22;460;48.734;9.152;2024-01-07T14:21:55;2.00;99.90
947;DHT22;460;48.734;9.152;2024-01-07T14:24:23;2.00;99.90
947;DHT22;460;48.734;9.152;2024-01-07T14:26:50;2.00;99.90
947;DHT22;460;48.734;9.152;2024-01-07T14:29:17;1.80;99.90
947;DHT22;460;48.734;9.152;2024-01-07T14:31:44;1.70;99.90
947;DHT22;460;48.734;9.152;2024-01-07T14:34:11;1.70;99.90
947;DHT22;460;48.734;9.152;2024-01-07T14:36:39;1.80;99.90
947;DHT22;460;48.734;9.152;2024-01-07T14:39:07;1.80;99.90
947;DHT22;460;48.734;9.152;2024-01-07T14:41:35;1.80;99.90
947;DHT22;460;48.734;9.152;2024-01-07T14:44:02;1.90;99.90
947;DHT22;460;48.734;9.152;2024-01-07T14:46:29;2.00;99.90
947;DHT22;460;48.734;9.152;2024-01-07T14:48:56;1.80;99.90
947;DHT22;460;48.734;9.152;2024-01-07T14:51:23;1.80;99.90
947;DHT22;460;48.734;9.152;2024-01-07T14:53:50;1.80;99.90
947;DHT22;460;48.734;9.152;2024-01-07T14:56:18;1.70;99.90
947;DHT22;460;48.734;9.152;2024-01-07T14:58:46;1.60;99.90
947;DHT22;460;48.734;9.152;2024-01-07T15:01:13;1.50;99.90
947;DHT22;460;48.734;9.152;2024-01-07T15:03:40;1.60;99.90
947;DHT22;460;48.734;9.152;2024-01-07T15:06:07;1.60;99.90
947;DHT22;460;48.734;9.152;2024-01-07T15:08:34;1.50;99.90
947;DHT22;460;48.734;9.152;2024-01-07T15:11:01;1.60;99.90
947;DHT22;460;48.734;9.152;2024-01-07T15:13:29;1.50;99.90
947;DHT22;460;48.734;9.152;2024-01-07T15:15:57;1.40;99.90
947;DHT22;460;48.734;9.152;2024-01-07T15:18:24;1.40;99.90
947;DHT22;460;48.734;9.152;2024-01-07T15:20:51;1.40;99.90
947;DHT22;460;48.734;9.152;2024-01-07T15:23:18;1.50;99.90
947;DHT22;460;48.734;9.152;2024-01-07T15:25:45;1.50;99.90
947;DHT22;460;48.734;9.152;2024-01-07T15:28:11;1.40;99.90
947;DHT22;460;48.734;9.152;2024-01-07T15:30:38;1.50;99.90
947;DHT22;460;48.734;9.152;2024-01-07T15:33:07;1.50;99.90
947;DHT22;460;48.734;9.152;2024-01-07T15:35:34;1.50;99.90
947;DHT22;460;48.734;9.152;2024-01-07T15:38:01;1.50;99.90
947;DHT22;460;48.734;9.152;2024-01-07T15:40:28;1.50;99.90
947;DHT22;460;48.734;9.152;2024-01-07T15:42:56;1.40;99.90
947;DHT22;460;48.734;9.152;2024-01-07T15:45:23;1.40;99.90
947;DHT22;460;48.734;9.152;2024-01-07T15:47:50;1.30;99.90
947;DHT22;460;48.734;9.152;2024-01-07T15:50:18;1.20;99.90
947;DHT22;460;48.734;9.152;2024-01-07T15:52:44;1.20;99.90
947;DHT22;460;48.734;9.152;2024-01-07T15:55:13;1.20;99.90
947;DHT22;460;48.734;9.152;2024-01-07T15:57:40;1.30;99.90
947;DHT22;460;48.734;9.152;2024-01-07T16:00:11;1.40;99.90
947;DHT22;460;48.734;9.152;2024-01-07T16:02:38;1.20;99.90
947;DHT22;460;48.734;9.152;2024-01-07T16:05:05;1.30;99.90
947;DHT22;460;48.734;9.152;2024-01-07T16:07:33;1.30;99.90
947;DHT22;460;48.734;9.152;2024-01-07T16:10:00;1.20;99.90
947;DHT22;460;48.734;9.152;2024-01-07T16:12:27;1.00;99.90
947;DHT22;460;48.734;9.152;2024-01-07T16:14:56;1.00;99.90
947;DHT22;460;48.734;9.152;2024-01-07T16:17:22;0.80;99.90
947;DHT22;460;48.734;9.152;2024-01-07T16:19:49;0.90;99.90
947;DHT22;460;48.734;9.152;2024-01-07T16:22:16;0.90;99.90
947;DHT22;460;48.734;9.152;2024-01-07T16:24:44;0.90;99.90
947;DHT22;460;48.734;9.152;2024-01-07T16:27:11;0.80;99.90
947;DHT22;460;48.734;9.152;2024-01-07T16:29:39;0.70;99.90
947;DHT22;460;48.734;9.152;2024-01-07T16:32:06;0.70;99.90
947;DHT22;460;48.734;9.152;2024-01-07T16:34:33;0.70;99.90
947;DHT22;460;48.734;9.152;2024-01-07T16:36:59;0.80;99.90
947;DHT22;460;48.734;9.152;2024-01-07T16:39:26;0.90;99.90
947;DHT22;460;48.734;9.152;2024-01-07T16:41:54;1.00;99.90
947;DHT22;460;48.734;9.152;2024-01-07T16:44:23;1.00;99.90
947;DHT22;460;48.734;9.152;2024-01-07T16:46:49;0.90;99.90
947;DHT22;460;48.734;9.152;2024-01-07T16:49:16;0.80;99.90
947;DHT22;460;48.734;9.152;2024-01-07T16:51:43;0.80;99.90
947;DHT22;460;48.734;9.152;2024-01-07T16:54:10;0.80;99.90